createdAt,value
2018-07-16T00:01:20.047Z,5.80
2018-07-16T00:03:48.269Z,6.07
2018-07-16T00:06:16.463Z,6.20
2018-07-16T00:08:45.349Z,5.90
2018-07-16T00:11:13.527Z,5.60
2018-07-16T00:13:41.804Z,6.00
2018-07-16T00:16:10.795Z,6.90
2018-07-16T00:18:40.123Z,5.90
2018-07-16T00:21:08.288Z,6.90
2018-07-16T00:23:36.503Z,6.00
2018-07-16T00:26:04.701Z,6.43
2018-07-16T00:28:32.871Z,5.50
2018-07-16T00:31:01.033Z,5.73
2018-07-16T00:33:29.021Z,5.60
2018-07-16T00:35:57.277Z,6.40
2018-07-16T00:38:25.547Z,6.30
2018-07-16T00:40:55.000Z,6.67
2018-07-16T00:43:22.991Z,6.37
2018-07-16T00:45:53.010Z,7.10
2018-07-16T00:48:21.283Z,6.03
2018-07-16T00:50:49.547Z,6.07
2018-07-16T00:53:19.055Z,5.60
2018-07-16T00:55:47.370Z,6.43
2018-07-16T00:58:15.596Z,5.97
2018-07-16T01:00:45.050Z,5.67
2018-07-16T01:03:13.301Z,6.70
2018-07-16T01:05:42.073Z,6.97
2018-07-16T01:08:10.949Z,6.83
2018-07-16T01:10:39.518Z,6.20
2018-07-16T01:13:07.879Z,7.10
2018-07-16T01:15:36.209Z,6.40
2018-07-16T01:18:04.343Z,7.10
2018-07-16T01:20:32.496Z,6.20
2018-07-16T01:23:00.743Z,6.77
2018-07-16T01:25:29.075Z,7.40
2018-07-16T01:27:57.245Z,7.07
2018-07-16T01:30:25.429Z,7.47
2018-07-16T01:32:53.658Z,6.90
2018-07-16T01:35:21.965Z,6.70
2018-07-16T01:37:50.270Z,8.53
2018-07-16T01:40:18.465Z,7.50
2018-07-16T01:42:46.679Z,7.43
2018-07-16T01:45:15.221Z,7.67
2018-07-16T01:47:43.956Z,7.97
2018-07-16T01:50:12.501Z,7.43
2018-07-16T01:52:40.673Z,8.20
2018-07-16T01:55:09.004Z,9.27
2018-07-16T01:57:37.179Z,10.13
2018-07-16T02:00:05.387Z,10.07
2018-07-16T02:02:33.691Z,9.90
2018-07-16T02:05:01.970Z,10.47
2018-07-16T02:07:30.473Z,10.00
2018-07-16T02:09:58.721Z,10.50
2018-07-16T02:12:26.873Z,10.60
2018-07-16T02:14:55.028Z,10.43
2018-07-16T02:17:24.188Z,9.33
2018-07-16T02:19:52.720Z,9.70
2018-07-16T02:22:21.824Z,9.13
2018-07-16T02:24:51.326Z,9.70
2018-07-16T02:27:19.602Z,9.70
2018-07-16T02:29:47.761Z,8.90
2018-07-16T02:32:15.915Z,10.17
2018-07-16T02:34:44.172Z,9.43
2018-07-16T02:37:13.355Z,9.90
2018-07-16T02:39:41.665Z,9.20
2018-07-16T02:42:09.946Z,8.37
2018-07-16T02:44:38.126Z,9.67
2018-07-16T02:47:08.670Z,8.50
2018-07-16T02:49:36.790Z,8.60
2018-07-16T02:52:05.103Z,8.73
2018-07-16T02:54:33.248Z,8.17
2018-07-16T02:57:01.401Z,7.93
2018-07-16T02:59:29.510Z,8.83
2018-07-16T03:01:57.786Z,8.10
2018-07-16T03:04:26.043Z,9.47
2018-07-16T03:06:54.301Z,8.00
2018-07-16T03:09:22.443Z,8.87
2018-07-16T03:11:51.509Z,9.60
2018-07-16T03:14:19.625Z,8.73
2018-07-16T03:16:47.881Z,8.27
2018-07-16T03:19:16.116Z,8.90
2018-07-16T03:21:44.305Z,9.50
2018-07-16T03:24:12.324Z,8.93
2018-07-16T03:26:41.260Z,9.73
2018-07-16T03:29:09.477Z,10.97
2018-07-16T03:31:38.181Z,9.67
2018-07-16T03:34:07.737Z,8.47
2018-07-16T03:36:35.655Z,9.30
2018-07-16T03:39:04.784Z,10.47
2018-07-16T03:41:32.907Z,9.20
2018-07-16T03:44:01.759Z,9.00
2018-07-16T03:46:30.015Z,9.67
2018-07-16T03:48:58.199Z,11.90
2018-07-16T03:51:26.362Z,11.70
2018-07-16T03:53:54.578Z,10.97
2018-07-16T03:56:22.742Z,10.53
2018-07-16T03:58:51.103Z,11.10
2018-07-16T04:01:19.992Z,10.83
2018-07-16T04:03:48.141Z,10.73
2018-07-16T04:06:16.316Z,9.77
2018-07-16T04:08:45.145Z,9.90
2018-07-16T04:11:14.133Z,10.00
2018-07-16T04:13:42.584Z,9.43
2018-07-16T04:16:10.749Z,9.23
2018-07-16T04:18:38.923Z,9.23
2018-07-16T04:21:07.113Z,9.70
2018-07-16T04:23:36.493Z,8.77
2018-07-16T04:26:04.649Z,8.60
2018-07-16T04:28:32.669Z,8.83
2018-07-16T04:31:00.954Z,8.90
2018-07-16T04:33:29.083Z,8.60
2018-07-16T04:35:57.283Z,9.20
2018-07-16T04:38:25.439Z,8.73
2018-07-16T04:40:54.089Z,9.00
2018-07-16T04:43:22.318Z,9.40
2018-07-16T04:45:51.875Z,8.50
2018-07-16T04:48:20.294Z,8.10
2018-07-16T04:50:49.771Z,8.03
2018-07-16T04:53:17.906Z,7.83
2018-07-16T04:55:46.069Z,7.67
2018-07-16T04:58:14.243Z,7.80
2018-07-16T05:00:42.433Z,7.07
2018-07-16T05:03:10.740Z,6.30
2018-07-16T05:05:40.433Z,5.97
2018-07-16T05:08:08.609Z,6.90
2018-07-16T05:10:36.783Z,6.30
2018-07-16T05:13:05.045Z,6.50
2018-07-16T05:15:33.887Z,5.90
2018-07-16T05:18:02.117Z,6.90
2018-07-16T05:20:30.555Z,6.70
2018-07-16T05:22:58.863Z,7.10
2018-07-16T05:25:28.525Z,7.13
2018-07-16T05:27:57.278Z,6.80
2018-07-16T05:30:25.504Z,6.77
2018-07-16T05:32:54.125Z,6.30
2018-07-16T05:35:24.445Z,5.83
2018-07-16T05:37:53.487Z,6.13
2018-07-16T05:40:21.440Z,6.30
2018-07-16T05:42:49.411Z,5.87
2018-07-16T05:45:17.632Z,5.60
2018-07-16T05:47:46.401Z,5.73
2018-07-16T05:50:15.165Z,6.13
2018-07-16T05:52:44.232Z,4.80
2018-07-16T05:55:12.783Z,5.40
2018-07-16T05:57:41.404Z,5.27
2018-07-16T06:00:09.648Z,5.60
2018-07-16T06:02:38.012Z,4.87
2018-07-16T06:05:07.968Z,5.80
2018-07-16T06:07:36.264Z,4.97
2018-07-16T06:10:04.463Z,5.73
2018-07-16T06:12:32.639Z,5.33
2018-07-16T06:15:00.813Z,5.70
2018-07-16T06:17:29.252Z,5.30
2018-07-16T06:19:58.256Z,6.40
2018-07-16T06:22:26.473Z,5.37
2018-07-16T06:24:54.631Z,6.00
2018-07-16T06:27:22.792Z,6.33
2018-07-16T06:29:50.920Z,5.87
2018-07-16T06:32:19.084Z,6.10
2018-07-16T06:34:47.298Z,5.27
2018-07-16T06:37:15.836Z,5.43
2018-07-16T06:39:44.127Z,4.70
2018-07-16T06:42:15.305Z,5.50
2018-07-16T06:44:43.342Z,4.87
2018-07-16T06:47:11.502Z,4.33
2018-07-16T06:49:41.610Z,4.20
2018-07-16T06:52:09.896Z,4.57
2018-07-16T06:54:38.011Z,4.63
2018-07-16T06:57:06.560Z,4.30
2018-07-16T06:59:35.784Z,4.80
2018-07-16T07:02:04.265Z,4.20
2018-07-16T07:04:32.767Z,4.20
2018-07-16T07:07:00.941Z,4.70
2018-07-16T07:09:29.143Z,4.97
2018-07-16T07:11:57.818Z,4.90
2018-07-16T07:14:26.104Z,5.03
2018-07-16T07:16:54.321Z,4.27
2018-07-16T07:19:22.483Z,4.10
2018-07-16T07:21:50.463Z,6.03
2018-07-16T07:24:18.623Z,4.60
2018-07-16T07:26:47.427Z,4.80
2018-07-16T07:29:15.864Z,4.30
2018-07-16T07:31:44.061Z,5.10
2018-07-16T07:34:12.272Z,4.43
2018-07-16T07:36:40.553Z,4.70
2018-07-16T07:39:09.204Z,4.60
2018-07-16T07:41:37.490Z,4.47
2018-07-16T07:44:05.896Z,4.90
2018-07-16T07:46:33.984Z,4.67
2018-07-16T07:49:03.755Z,4.20
2018-07-16T07:51:32.183Z,4.53
2018-07-16T07:54:00.882Z,4.00
2018-07-16T07:56:31.724Z,4.07
2018-07-16T07:59:00.849Z,4.80
2018-07-16T08:01:29.533Z,8.20
2018-07-16T08:03:57.834Z,5.00
2018-07-16T08:06:29.513Z,4.87
2018-07-16T08:08:59.548Z,4.17
2018-07-16T08:11:29.433Z,5.10
2018-07-16T08:13:58.006Z,3.77
2018-07-16T08:16:26.560Z,4.30
2018-07-16T08:18:57.221Z,4.70
2018-07-16T08:21:26.006Z,4.43
2018-07-16T08:23:54.384Z,4.00
2018-07-16T08:26:23.377Z,4.83
2018-07-16T08:28:53.213Z,4.13
2018-07-16T08:31:21.612Z,4.40
2018-07-16T08:33:49.956Z,5.00
2018-07-16T08:36:19.632Z,4.40
2018-07-16T08:38:48.396Z,5.07
2018-07-16T08:41:16.982Z,4.73
2018-07-16T08:43:46.426Z,4.00
2018-07-16T08:46:15.142Z,4.13
2018-07-16T08:48:43.700Z,4.50
2018-07-16T08:51:12.910Z,3.83
2018-07-16T08:53:42.182Z,4.37
2018-07-16T08:56:11.644Z,3.80
2018-07-16T08:58:40.309Z,3.97
2018-07-16T09:01:08.862Z,4.60
2018-07-16T09:03:37.185Z,3.90
2018-07-16T09:06:06.801Z,3.70
2018-07-16T09:08:36.486Z,3.87
2018-07-16T09:11:05.543Z,4.00
2018-07-16T09:13:34.541Z,3.70
2018-07-16T09:16:02.799Z,3.20
2018-07-16T09:18:30.968Z,3.40
2018-07-16T09:20:59.090Z,3.47
2018-07-16T09:23:28.196Z,3.50
2018-07-16T09:25:56.389Z,5.33
2018-07-16T09:28:25.778Z,3.87
2018-07-16T09:30:54.097Z,4.10
2018-07-16T09:33:22.288Z,4.00
2018-07-16T09:35:52.384Z,3.63
2018-07-16T09:38:21.846Z,3.70
2018-07-16T09:40:50.045Z,3.87
2018-07-16T09:43:18.203Z,4.67
2018-07-16T09:45:47.284Z,3.87
2018-07-16T09:48:15.507Z,3.50
2018-07-16T09:50:43.642Z,3.13
2018-07-16T09:53:12.078Z,3.27
2018-07-16T09:55:40.910Z,3.67
2018-07-16T09:58:09.220Z,3.97
2018-07-16T10:00:38.608Z,4.30
2018-07-16T10:03:06.900Z,3.73
2018-07-16T10:05:34.832Z,3.80
2018-07-16T10:08:03.082Z,4.10
2018-07-16T10:10:31.344Z,3.87
2018-07-16T10:12:59.573Z,4.13
2018-07-16T10:15:28.618Z,3.63
2018-07-16T10:17:56.790Z,3.30
2018-07-16T10:20:24.986Z,3.73
2018-07-16T10:22:53.110Z,3.77
2018-07-16T10:25:21.599Z,3.80
2018-07-16T10:27:49.818Z,3.80
2018-07-16T10:30:18.007Z,3.50
2018-07-16T10:32:46.939Z,4.00
2018-07-16T10:35:15.087Z,3.40
2018-07-16T10:37:44.239Z,4.13
2018-07-16T10:40:12.379Z,4.67
2018-07-16T10:42:40.551Z,3.63
2018-07-16T10:45:08.759Z,3.40
2018-07-16T10:47:36.961Z,3.60
2018-07-16T10:50:06.209Z,3.20
2018-07-16T10:52:34.681Z,3.10
2018-07-16T10:55:02.966Z,3.40
2018-07-16T10:57:31.235Z,3.57
2018-07-16T10:59:59.443Z,3.70
2018-07-16T11:02:27.617Z,3.90
2018-07-16T11:04:55.854Z,4.10
2018-07-16T11:07:24.165Z,3.47
2018-07-16T11:09:52.308Z,3.90
2018-07-16T11:12:20.585Z,3.93
2018-07-16T11:14:48.795Z,3.60
2018-07-16T11:17:16.989Z,3.77
2018-07-16T11:19:45.202Z,2.97
2018-07-16T11:22:13.389Z,3.13
2018-07-16T11:24:41.662Z,2.30
2018-07-16T11:27:10.197Z,3.07
2018-07-16T11:29:38.511Z,3.17
2018-07-16T11:32:07.125Z,2.70
2018-07-16T11:34:35.327Z,2.80
2018-07-16T11:37:03.949Z,3.13
2018-07-16T11:39:32.542Z,2.50
2018-07-16T11:42:00.860Z,3.00
2018-07-16T11:44:28.976Z,3.10
2018-07-16T11:46:57.180Z,3.33
2018-07-16T11:49:25.332Z,3.00
2018-07-16T11:51:53.487Z,2.87
2018-07-16T11:54:22.424Z,3.10
2018-07-16T11:56:52.041Z,3.03
2018-07-16T11:59:20.296Z,2.57
2018-07-16T12:01:48.440Z,2.73
2018-07-16T12:04:18.158Z,2.77
2018-07-16T12:06:46.554Z,2.80
2018-07-16T12:09:14.745Z,2.70
2018-07-16T12:11:43.119Z,3.03
2018-07-16T12:14:11.302Z,2.50
2018-07-16T12:16:41.216Z,2.77
2018-07-16T12:19:09.225Z,3.30
2018-07-16T12:21:38.272Z,4.60
2018-07-16T12:24:06.416Z,3.33
2018-07-16T12:26:34.619Z,3.57
2018-07-16T12:29:02.820Z,3.03
2018-07-16T12:31:31.180Z,3.27
2018-07-16T12:33:59.348Z,3.20
2018-07-16T12:36:27.634Z,3.10
2018-07-16T12:38:55.840Z,3.10
2018-07-16T12:41:24.244Z,3.20
2018-07-16T12:43:52.628Z,2.90
2018-07-16T12:46:21.294Z,2.97
2018-07-16T12:48:49.621Z,3.20
2018-07-16T12:51:18.070Z,2.73
2018-07-16T12:53:46.338Z,3.03
2018-07-16T12:56:15.108Z,2.77
2018-07-16T12:58:43.278Z,3.13
2018-07-16T13:01:11.635Z,3.07
2018-07-16T13:03:40.106Z,3.03
2018-07-16T13:06:08.651Z,3.33
2018-07-16T13:08:37.810Z,3.80
2018-07-16T13:11:06.352Z,3.30
2018-07-16T13:13:34.687Z,3.40
2018-07-16T13:16:02.967Z,3.00
2018-07-16T13:18:31.672Z,4.00
2018-07-16T13:21:00.055Z,2.70
2018-07-16T13:23:28.215Z,2.80
2018-07-16T13:25:57.430Z,2.70
2018-07-16T13:28:26.074Z,2.77
2018-07-16T13:30:56.047Z,2.93
2018-07-16T13:33:25.344Z,3.00
2018-07-16T13:35:54.142Z,3.27
2018-07-16T13:38:22.306Z,2.60
2018-07-16T13:40:51.752Z,2.43
2018-07-16T13:43:19.952Z,2.67
2018-07-16T13:45:47.966Z,2.70
2018-07-16T13:48:17.273Z,3.20
2018-07-16T13:50:45.559Z,3.07
2018-07-16T13:53:13.731Z,4.13
2018-07-16T13:55:41.912Z,2.90
2018-07-16T13:58:10.640Z,3.00
2018-07-16T14:00:38.797Z,3.30
2018-07-16T14:03:08.066Z,3.00
2018-07-16T14:05:36.494Z,3.10
2018-07-16T14:08:06.592Z,2.80
2018-07-16T14:10:34.790Z,2.70
2018-07-16T14:13:02.993Z,2.60
2018-07-16T14:15:31.301Z,2.50
2018-07-16T14:18:00.309Z,2.53
2018-07-16T14:20:28.539Z,2.90
2018-07-16T14:22:56.727Z,3.10
2018-07-16T14:25:25.060Z,2.50
2018-07-16T14:27:53.538Z,3.60
2018-07-16T14:30:21.712Z,3.20
2018-07-16T14:32:49.865Z,2.80
2018-07-16T14:35:18.256Z,3.60
2018-07-16T14:37:46.418Z,3.47
2018-07-16T14:40:14.598Z,2.80
2018-07-16T14:42:42.843Z,2.77
2018-07-16T14:45:11.028Z,3.43
2018-07-16T14:47:39.400Z,3.20
2018-07-16T14:50:07.594Z,3.20
2018-07-16T14:52:35.856Z,3.17
2018-07-16T14:55:04.058Z,3.30
2018-07-16T14:57:32.414Z,3.03
2018-07-16T15:00:00.921Z,3.80
2018-07-16T15:02:29.139Z,3.13
2018-07-16T15:04:57.326Z,3.23
2018-07-16T15:07:25.307Z,3.50
2018-07-16T15:09:53.432Z,3.50
2018-07-16T15:12:21.735Z,3.17
2018-07-16T15:14:50.669Z,3.47
2018-07-16T15:17:18.902Z,2.87
2018-07-16T15:19:47.075Z,3.37
2018-07-16T15:22:15.215Z,3.23
2018-07-16T15:24:43.392Z,3.03
2018-07-16T15:27:11.577Z,2.87
2018-07-16T15:29:39.774Z,3.03
2018-07-16T15:32:07.962Z,3.70
2018-07-16T15:34:36.118Z,3.33
2018-07-16T15:37:04.470Z,3.23
2018-07-16T15:39:32.639Z,3.30
2018-07-16T15:42:00.956Z,3.40
2018-07-16T15:44:29.155Z,3.23
2018-07-16T15:46:57.344Z,3.20
2018-07-16T15:49:25.500Z,3.53
2018-07-16T15:51:54.576Z,3.57
2018-07-16T15:54:22.737Z,3.00
2018-07-16T15:56:51.262Z,3.53
2018-07-16T15:59:19.452Z,3.10
2018-07-16T16:01:47.671Z,3.20
2018-07-16T16:06:50.418Z,3.00
2018-07-16T16:09:18.609Z,3.63
2018-07-16T16:11:46.748Z,2.83
2018-07-16T16:14:14.958Z,3.53
2018-07-16T16:16:43.132Z,3.13
2018-07-16T16:19:11.264Z,3.90
2018-07-16T16:21:40.126Z,3.20
2018-07-16T16:24:08.338Z,5.53
2018-07-16T16:26:36.548Z,3.30
2018-07-16T16:29:04.818Z,3.30
2018-07-16T16:31:32.967Z,3.00
2018-07-16T16:34:01.185Z,3.20
2018-07-16T16:36:29.428Z,3.10
2018-07-16T16:38:57.754Z,3.33
2018-07-16T16:41:25.903Z,2.80
2018-07-16T16:43:54.149Z,3.40
2018-07-16T16:46:22.399Z,2.57
2018-07-16T16:48:50.671Z,3.57
2018-07-16T16:51:20.279Z,2.80
2018-07-16T16:53:48.548Z,2.80
2018-07-16T16:56:17.556Z,3.60
2018-07-16T16:58:45.729Z,4.07
2018-07-16T17:01:13.888Z,3.07
2018-07-16T17:03:42.062Z,2.90
2018-07-16T17:06:10.337Z,2.80
2018-07-16T17:08:38.592Z,2.80
2018-07-16T17:11:06.809Z,3.10
2018-07-16T17:13:34.971Z,2.80
2018-07-16T17:16:03.150Z,3.27
2018-07-16T17:18:31.385Z,3.20
2018-07-16T17:20:59.627Z,3.13
2018-07-16T17:23:27.940Z,2.70
2018-07-16T17:25:56.114Z,2.30
2018-07-16T17:28:24.306Z,3.13
2018-07-16T17:30:52.503Z,2.40
2018-07-16T17:33:20.928Z,2.70
2018-07-16T17:35:51.367Z,2.97
2018-07-16T17:38:20.121Z,3.57
2018-07-16T17:40:52.348Z,3.07
2018-07-16T17:43:20.821Z,2.80
2018-07-16T17:45:49.786Z,2.93
2018-07-16T17:48:17.954Z,2.93
2018-07-16T17:50:46.112Z,3.10
2018-07-16T17:53:14.933Z,3.10
2018-07-16T17:55:43.796Z,2.90
2018-07-16T17:58:11.955Z,3.30
2018-07-16T18:00:40.168Z,2.80
2018-07-16T18:03:08.611Z,3.83
2018-07-16T18:05:36.926Z,3.60
2018-07-16T18:08:05.273Z,3.20
2018-07-16T18:10:33.445Z,3.33
2018-07-16T18:13:01.893Z,4.13
2018-07-16T18:15:30.083Z,3.20
2018-07-16T18:17:58.257Z,3.47
2018-07-16T18:20:27.147Z,3.60
2018-07-16T18:22:55.300Z,3.70
2018-07-16T18:25:23.525Z,3.37
2018-07-16T18:27:51.805Z,3.70
2018-07-16T18:30:20.005Z,3.30
2018-07-16T18:32:48.269Z,4.00
2018-07-16T18:35:16.910Z,3.23
2018-07-16T18:37:45.895Z,4.20
2018-07-16T18:40:14.002Z,3.50
2018-07-16T18:42:42.227Z,3.60
2018-07-16T18:45:10.467Z,3.40
2018-07-16T18:47:39.265Z,3.50
2018-07-16T18:50:08.269Z,4.00
2018-07-16T18:52:36.452Z,3.80
2018-07-16T18:55:05.092Z,4.00
2018-07-16T18:57:33.284Z,3.07
2018-07-16T19:00:01.583Z,3.70
2018-07-16T19:02:29.743Z,5.80
2018-07-16T19:04:58.015Z,4.50
2018-07-16T19:07:26.235Z,3.60
2018-07-16T19:09:54.438Z,3.40
2018-07-16T19:12:22.983Z,3.23
2018-07-16T19:14:51.189Z,3.83
2018-07-16T19:17:19.489Z,4.20
2018-07-16T19:19:47.645Z,4.80
2018-07-16T19:22:16.239Z,3.90
2018-07-16T19:24:45.491Z,4.00
2018-07-16T19:27:13.671Z,4.00
2018-07-16T19:29:44.050Z,3.90
2018-07-16T19:32:12.227Z,3.90
2018-07-16T19:34:40.137Z,4.23
2018-07-16T19:37:08.670Z,4.07
2018-07-16T19:39:36.632Z,4.20
2018-07-16T19:42:04.911Z,4.03
2018-07-16T19:44:33.129Z,3.33
2018-07-16T19:47:01.382Z,2.67
2018-07-16T19:49:29.440Z,3.33
2018-07-16T19:51:57.838Z,3.60
2018-07-16T19:54:26.052Z,3.57
2018-07-16T19:56:54.507Z,2.60
2018-07-16T19:59:22.655Z,2.90
2018-07-16T20:01:50.869Z,3.10
2018-07-16T20:04:18.867Z,2.80
2018-07-16T20:06:47.047Z,3.20
2018-07-16T20:09:15.922Z,2.90
2018-07-16T20:11:44.017Z,3.20
2018-07-16T20:14:12.247Z,2.83
2018-07-16T20:16:43.975Z,2.87
2018-07-16T20:19:12.685Z,3.03
2018-07-16T20:21:40.915Z,2.80
2018-07-16T20:24:08.924Z,3.20
2018-07-16T20:26:37.117Z,2.43
2018-07-16T20:29:05.643Z,2.60
2018-07-16T20:31:33.858Z,3.10
2018-07-16T20:34:02.135Z,3.27
2018-07-16T20:36:30.666Z,3.13
2018-07-16T20:38:58.825Z,2.93
2018-07-16T20:41:28.268Z,2.93
2018-07-16T20:43:56.403Z,3.30
2018-07-16T20:46:24.554Z,3.30
2018-07-16T20:48:53.859Z,3.43
2018-07-16T20:51:23.158Z,2.90
2018-07-16T20:53:51.453Z,3.77
2018-07-16T20:56:20.387Z,3.13
2018-07-16T20:58:48.574Z,3.30
2018-07-16T21:01:16.775Z,3.83
2018-07-16T21:03:44.983Z,3.50
2018-07-16T21:06:13.168Z,3.13
2018-07-16T21:08:43.095Z,3.83
2018-07-16T21:11:11.275Z,3.07
2018-07-16T21:13:39.447Z,3.60
2018-07-16T21:16:09.413Z,3.90
2018-07-16T21:18:37.634Z,3.60
2018-07-16T21:21:06.013Z,3.67
2018-07-16T21:23:36.179Z,3.60
2018-07-16T21:26:05.286Z,4.17
2018-07-16T21:28:34.857Z,4.30
2018-07-16T21:31:03.053Z,3.63
2018-07-16T21:33:31.227Z,4.00
2018-07-16T21:35:59.507Z,4.00
2018-07-16T21:38:28.385Z,4.17
2018-07-16T21:40:56.605Z,4.00
2018-07-16T21:43:24.747Z,4.20
2018-07-16T21:45:52.930Z,4.83
2018-07-16T21:48:22.969Z,4.03
2018-07-16T21:50:51.144Z,4.20
2018-07-16T21:53:19.323Z,4.57
2018-07-16T21:55:47.532Z,4.90
2018-07-16T21:58:15.690Z,5.20
2018-07-16T22:00:43.950Z,5.67
2018-07-16T22:03:12.089Z,5.73
2018-07-16T22:05:42.234Z,4.90
2018-07-16T22:08:10.729Z,5.07
2018-07-16T22:10:40.069Z,6.20
2018-07-16T22:13:08.295Z,6.47
2018-07-16T22:15:36.233Z,4.90
2018-07-16T22:18:04.634Z,6.40
2018-07-16T22:20:32.821Z,7.27
2018-07-16T22:23:01.046Z,5.73
2018-07-16T22:25:29.211Z,7.70
2018-07-16T22:27:57.434Z,7.00
2018-07-16T22:30:26.396Z,6.90
2018-07-16T22:32:54.577Z,7.30
2018-07-16T22:35:23.064Z,7.53
2018-07-16T22:37:51.261Z,8.50
2018-07-16T22:40:19.468Z,7.10
2018-07-16T22:42:47.754Z,6.10
2018-07-16T22:45:15.754Z,5.90
2018-07-16T22:47:44.243Z,5.47
2018-07-16T22:50:12.551Z,5.27
2018-07-16T22:52:40.721Z,6.40
2018-07-16T22:55:08.939Z,5.43
2018-07-16T22:57:37.367Z,5.57
2018-07-16T23:00:07.203Z,5.23
2018-07-16T23:02:35.569Z,6.43
2018-07-16T23:05:03.896Z,4.60
2018-07-16T23:07:32.156Z,5.13
2018-07-16T23:10:00.364Z,5.03
2018-07-16T23:12:28.624Z,5.27
2018-07-16T23:14:56.805Z,4.93
2018-07-16T23:17:24.949Z,5.80
2018-07-16T23:19:53.289Z,5.73
2018-07-16T23:22:22.696Z,5.17
2018-07-16T23:24:51.040Z,4.47
2018-07-16T23:27:19.197Z,5.20
2018-07-16T23:29:49.173Z,4.93
2018-07-16T23:32:17.362Z,3.97
2018-07-16T23:34:45.352Z,4.80
2018-07-16T23:37:13.343Z,5.00
2018-07-16T23:39:41.522Z,5.20
2018-07-16T23:42:09.651Z,4.80
2018-07-16T23:44:37.747Z,5.27
2018-07-16T23:47:05.934Z,5.40
2018-07-16T23:49:34.113Z,5.23
2018-07-16T23:52:02.309Z,5.00
2018-07-16T23:54:30.664Z,5.67
2018-07-16T23:56:58.872Z,6.13
2018-07-16T23:59:27.142Z,5.47
